Airfield :
LOGIN :

Register | Disclaimer

   EN    FR    IT 

 










Legend :    VFR   Marginal VFR   IFR   Intensive IFR   Very Intensive IFR
Visi :
Ceiling :
>= 8 km
>= 3000ft
5 to 8 km
1000 to 3000 ft
1500m to 5 km
500 to 1000 ft
800 to 1500m
200 to 500 ft
< 800m
< 200 ft
Symbols :   Thunderstorms  Fog  Heavy snow  Heavy precipitations  Wind > 20 kt
SIGMETs :     Misc.  Thunderstorms  Icing  Turbulence  Mountain Waves  Volcanic Ashes







- Airport Elevation : 791 ft
- IATA code : KRK


EPKK - Krakow-Balice

CURRENT METAR :
  • 212330Z VRB01KT 6000 BKN033 05/03 Q1032

EXPIRED METARs :
  • 212300Z 15002KT 6000 BKN033 05/03 Q1032
  • 212230Z 27001KT 6000 BKN040 06/03 Q1032
  • 212200Z 20002KT 7000 BKN033 07/03 Q1032
  • 212130Z VRB02KT 6000 BKN033 07/03 Q1032

TAF TAF EPKK
Valid from the 22 at 00:00 until the 23 at 00:00 UTC


212330Z 2200/2224 27002KT 6000 BKN032
TEMPO 2200/2202 4000 BR
BECMG 2202/2204 2000 BR
PROB30 2204/2206 0700 FG
BECMG 2206/2208 7000
BECMG 2215/2218 4000 BR BKN006 OVC013
No reported NOTAMs for that airfield.



MET'MAP, your aeronautical weather chart ! - Copyright ORBIFLY December 2007 - Disclaimer

ORBIFLY MET'MAP TEAM :

Programming & Development : Alexandra Zaïnal
Concept & Development : Baudouin d'Aumeries
Co-Development & Prog : Marc-Olivier Méhu
Technical & hardware support : Manuel Goepfert

Contact : metmap@orbifly.com




SOURCES & CREDITS :

   NOAA